»·PEaware :: DFGCW S50-65S

DFGCW :: S50-65S

FLIGHT INFORMATION

Flight Status: Arrived
Operator: Unknown
More flights by this operator :: More flights under this callsign
Pilot: Klaus A. (15485)
Aircraft: PILATUS PC-12 EAGLE
(PC12)
More flights by this aircraft type
Origin: S50 Auburn Mun
United States
Destination: 65S Boundary Co
United States
More flights between these airports :: More routes between these airports
Route: BLAKO1 BLAKO TAGOR V120 EAT V120 EPH V120 GEG V448 KARPS
File this flight plan on PilotEdge
Remarks: / L Custom weather
Altitude:
(Current/Filed)
25,000ft
Speed:
(Current/Filed)
240kts
Departed: 22-Nov-18 09:45 AM
Arrived: 22-Nov-18 10:58 AM
Distance/Time
Traveled:
252nm/1:12
Distance/Time
To Go:
Arrived

Flight Plot

Page will automatically refresh every two minutes.

Flight plan parsing failed; only flown route is shown


Map Options




Map Legend


Flown Route
Filed Route
Departure Airport
Arrival Airport
Navaid (VOR, NDB)
Fix

Horizontal Profiles

Position Reports

Time Latitude Longitude Heading Altitude Ground
Speed
22-Nov-18 09:07 47.323136 -122.224511 0 68ft 0kts
22-Nov-18 09:08 47.323136 -122.224511 0 68ft 0kts
22-Nov-18 09:09 47.323136 -122.224511 0 68ft 0kts
22-Nov-18 09:10 47.323136 -122.224511 0 68ft 0kts
22-Nov-18 09:11 47.323136 -122.224511 0 68ft 0kts
22-Nov-18 09:13 47.323136 -122.224511 0 68ft 0kts
22-Nov-18 09:14 47.323136 -122.224511 0 68ft 0kts
22-Nov-18 09:20 47.323135 -122.224511 0 68ft 0kts
22-Nov-18 09:21 47.323135 -122.224511 179 68ft 0kts
22-Nov-18 09:22 47.323135 -122.224511 179 68ft 0kts
22-Nov-18 09:28 47.323135 -122.224511 179 68ft 0kts
22-Nov-18 09:29 47.323135 -122.224511 179 68ft 0kts
22-Nov-18 09:30 47.323135 -122.224511 179 68ft 0kts
22-Nov-18 09:31 47.323135 -122.224511 179 68ft 0kts
22-Nov-18 09:32 47.323135 -122.224511 179 68ft 0kts
22-Nov-18 09:33 47.323135 -122.224511 179 68ft 0kts
22-Nov-18 09:34 47.323135 -122.224511 179 68ft 0kts
22-Nov-18 09:35 47.323135 -122.224511 179 68ft 0kts
22-Nov-18 09:36 47.323135 -122.224511 179 68ft 0kts
22-Nov-18 09:37 47.323135 -122.224511 179 68ft 0kts
22-Nov-18 09:38 47.323135 -122.224511 179 68ft 0kts
22-Nov-18 09:39 47.323135 -122.224511 179 68ft 0kts
22-Nov-18 09:40 47.323057 -122.224517 211 68ft 0kts
22-Nov-18 09:41 47.323004 -122.224625 245 68ft 3kts
22-Nov-18 09:42 47.325076 -122.225621 0 67ft 13kts
22-Nov-18 09:43 47.329496 -122.225720 359 68ft 17kts
22-Nov-18 09:44 47.332313 -122.226096 262 67ft 0kts
22-Nov-18 09:45 47.332313 -122.226096 262 67ft 0kts
22-Nov-18 09:46 47.332041 -122.226799 173 68ft 0kts
22-Nov-18 09:47 47.332041 -122.226799 173 68ft 0kts
22-Nov-18 09:48 47.310826 -122.227103 160 925ft 131kts
22-Nov-18 09:49 47.302445 -122.175867 91 3339ft 149kts
22-Nov-18 09:50 47.290337 -122.121406 135 5750ft 145kts
22-Nov-18 09:51 47.265036 -122.074165 126 8073ft 158kts
22-Nov-18 09:52 47.281242 -122.008938 69 10116ft 185kts
22-Nov-18 09:53 47.310011 -121.945127 86 11991ft 189kts
22-Nov-18 09:54 47.317366 -121.867630 86 13810ft 195kts
22-Nov-18 09:55 47.324898 -121.787977 86 15480ft 201kts
22-Nov-18 09:56 47.332591 -121.705887 86 16986ft 207kts
22-Nov-18 09:57 47.340465 -121.621336 86 18385ft 211kts
22-Nov-18 09:58 47.348447 -121.534851 86 19940ft 215kts
22-Nov-18 09:59 47.356458 -121.447282 86 21347ft 219kts
22-Nov-18 10:00 47.364580 -121.357826 86 22539ft 223kts
22-Nov-18 10:01 47.372558 -121.269004 87 23599ft 226kts
22-Nov-18 10:02 47.380398 -121.181026 88 24554ft 228kts
22-Nov-18 10:03 47.389038 -121.082584 86 24736ft 260kts
22-Nov-18 10:04 47.398665 -120.972571 85 24734ft 281kts
22-Nov-18 10:05 47.408726 -120.856166 85 24736ft 291kts
22-Nov-18 10:06 47.412304 -120.738468 95 24736ft 291kts
22-Nov-18 10:07 47.409661 -120.619310 95 24837ft 292kts
22-Nov-18 10:08 47.406884 -120.499226 95 24834ft 294kts
22-Nov-18 10:09 47.403972 -120.378744 95 24839ft 295kts
22-Nov-18 10:10 47.400944 -120.258935 96 24833ft 295kts
22-Nov-18 10:11 47.397929 -120.139233 96 24834ft 294kts
22-Nov-18 10:12 47.394861 -120.018600 96 24835ft 294kts
22-Nov-18 10:13 47.391679 -119.898341 96 24834ft 294kts
22-Nov-18 10:14 47.388383 -119.778279 96 24847ft 294kts
22-Nov-18 10:15 47.384961 -119.658260 95 24846ft 294kts
22-Nov-18 10:16 47.381404 -119.537942 96 24845ft 294kts
22-Nov-18 10:17 47.378892 -119.418038 84 24838ft 298kts
22-Nov-18 10:18 47.391788 -119.299936 83 24842ft 297kts
22-Nov-18 10:19 47.405048 -119.180058 83 24852ft 297kts
22-Nov-18 10:20 47.418170 -119.060194 83 24852ft 298kts
22-Nov-18 10:21 47.431234 -118.939751 83 24853ft 298kts
22-Nov-18 10:22 47.444189 -118.819019 83 24854ft 298kts
22-Nov-18 10:23 47.457002 -118.698594 84 24854ft 297kts
22-Nov-18 10:24 47.469654 -118.577931 84 24855ft 297kts
22-Nov-18 10:25 47.482152 -118.457709 84 24801ft 297kts
22-Nov-18 10:26 47.494224 -118.340415 85 24799ft 297kts
22-Nov-18 10:27 47.506544 -118.219857 86 24798ft 297kts
22-Nov-18 10:28 47.518622 -118.099480 86 24790ft 296kts
22-Nov-18 10:29 47.530616 -117.978978 86 24800ft 296kts
22-Nov-18 10:30 47.542480 -117.858630 86 24799ft 296kts
22-Nov-18 10:31 47.554231 -117.738201 86 24806ft 296kts
22-Nov-18 10:32 47.567215 -117.617479 78 24802ft 300kts
22-Nov-18 10:33 47.590943 -117.500097 77 24811ft 300kts
22-Nov-18 10:34 47.615035 -117.381781 77 24808ft 301kts
22-Nov-18 10:35 47.638440 -117.266252 77 24823ft 300kts
22-Nov-18 10:36 47.662552 -117.146299 77 23873ft 306kts
22-Nov-18 10:37 47.686366 -117.027386 77 22489ft 301kts
22-Nov-18 10:38 47.709857 -116.909255 77 21101ft 297kts
22-Nov-18 10:39 47.732985 -116.792284 77 19719ft 295kts
22-Nov-18 10:40 47.783263 -116.730390 19 18562ft 298kts
22-Nov-18 10:41 47.872893 -116.680248 17 16963ft 292kts
22-Nov-18 10:42 47.933990 -116.646573 16 15787ft 273kts
22-Nov-18 10:43 48.014629 -116.602024 16 14075ft 262kts
22-Nov-18 10:44 48.070441 -116.571108 16 12859ft 256kts
22-Nov-18 10:45 48.145037 -116.529672 15 11177ft 250kts
22-Nov-18 10:46 48.198227 -116.500046 15 9945ft 246kts
22-Nov-18 10:47 48.261092 -116.464902 15 8464ft 241kts
22-Nov-18 10:48 48.319684 -116.432161 10 7990ft 201kts
22-Nov-18 10:49 48.374812 -116.437059 346 6820ft 205kts
22-Nov-18 10:50 48.430433 -116.445559 347 5801ft 189kts
22-Nov-18 10:51 48.477019 -116.452707 346 5795ft 153kts
22-Nov-18 10:52 48.513226 -116.443515 13 5259ft 126kts
22-Nov-18 10:53 48.544653 -116.423073 14 5205ft 133kts
22-Nov-18 10:54 48.575487 -116.402354 12 5180ft 109kts
22-Nov-18 10:55 48.603063 -116.383677 15 4489ft 104kts
22-Nov-18 10:56 48.628357 -116.366453 14 4047ft 99kts
22-Nov-18 10:57 48.654586 -116.351970 17 3336ft 100kts
22-Nov-18 10:58 48.680541 -116.338910 13 3182ft 104kts
22-Nov-18 10:59 48.706233 -116.318946 35 2933ft 102kts
22-Nov-18 11:00 48.725617 -116.295680 44 2339ft 59kts
22-Nov-18 11:01 48.728882 -116.292748 338 2339ft 1kts
22-Nov-18 11:02 48.730054 -116.291984 316 2339ft 0kts
22-Nov-18 11:03 48.730054 -116.291984 316 2339ft 0kts
22-Nov-18 11:04 48.730054 -116.291984 316 2339ft 0kts
22-Nov-18 11:05 48.730054 -116.291984 316 2339ft 0kts
22-Nov-18 11:06 48.730054 -116.291984 316 2339ft 0kts
22-Nov-18 11:07 48.730054 -116.291984 316 2339ft 0kts
22-Nov-18 11:08 48.730054 -116.291984 316 2339ft 0kts
22-Nov-18 11:09 48.730054 -116.291984 316 2339ft 0kts
22-Nov-18 11:10 48.730054 -116.291984 316 2339ft 0kts
22-Nov-18 11:11 48.730054 -116.291984 316 2339ft 0kts

Navigation Log

Ident Type
Flight plan parsing failed, navigation log unavailable